sensor_id;sensor_type;location;lat;lon;timestamp;temperature;humidity
3816;DHT22;1923;48.154;11.536;2023-09-18T00:02:15;20.80;99.90
3816;DHT22;1923;48.154;11.536;2023-09-18T00:04:43;20.80;99.90
3816;DHT22;1923;48.154;11.536;2023-09-18T00:07:11;20.70;99.90
3816;DHT22;1923;48.154;11.536;2023-09-18T00:09:40;20.80;99.90
3816;DHT22;1923;48.154;11.536;2023-09-18T00:12:08;20.80;99.90
3816;DHT22;1923;48.154;11.536;2023-09-18T00:14:36;20.70;99.90
3816;DHT22;1923;48.154;11.536;2023-09-18T00:17:06;20.70;99.90
3816;DHT22;1923;48.154;11.536;2023-09-18T00:19:34;20.60;99.90
3816;DHT22;1923;48.154;11.536;2023-09-18T00:22:02;20.50;99.90
3816;DHT22;1923;48.154;11.536;2023-09-18T00:24:30;20.50;99.90
3816;DHT22;1923;48.154;11.536;2023-09-18T00:26:58;20.60;99.90
3816;DHT22;1923;48.154;11.536;2023-09-18T00:29:26;20.40;99.90
3816;DHT22;1923;48.154;11.536;2023-09-18T00:31:54;20.50;99.90
3816;DHT22;1923;48.154;11.536;2023-09-18T00:34:24;20.40;99.90
3816;DHT22;1923;48.154;11.536;2023-09-18T00:36:52;20.40;99.90
3816;DHT22;1923;48.154;11.536;2023-09-18T00:39:20;20.40;99.90
3816;DHT22;1923;48.154;11.536;2023-09-18T00:41:48;20.40;99.90
3816;DHT22;1923;48.154;11.536;2023-09-18T00:44:20;20.40;99.90
3816;DHT22;1923;48.154;11.536;2023-09-18T00:46:48;20.50;99.90
3816;DHT22;1923;48.154;11.536;2023-09-18T00:49:18;20.40;99.90
3816;DHT22;1923;48.154;11.536;2023-09-18T00:51:48;20.50;99.90
3816;DHT22;1923;48.154;11.536;2023-09-18T00:54:18;20.40;99.90
3816;DHT22;1923;48.154;11.536;2023-09-18T00:56:47;20.40;99.90
3816;DHT22;1923;48.154;11.536;2023-09-18T00:59:20;20.40;99.90
3816;DHT22;1923;48.154;11.536;2023-09-18T01:01:49;20.50;99.90
3816;DHT22;1923;48.154;11.536;2023-09-18T01:04:17;20.50;99.90
3816;DHT22;1923;48.154;11.536;2023-09-18T01:06:47;20.40;99.90
3816;DHT22;1923;48.154;11.536;2023-09-18T01:09:17;20.50;99.90
3816;DHT22;1923;48.154;11.536;2023-09-18T01:11:50;20.50;99.90
3816;DHT22;1923;48.154;11.536;2023-09-18T01:14:29;20.50;99.90
3816;DHT22;1923;48.154;11.536;2023-09-18T01:17:00;20.50;99.90
3816;DHT22;1923;48.154;11.536;2023-09-18T01:19:40;20.40;99.90
3816;DHT22;1923;48.154;11.536;2023-09-18T01:22:11;20.40;99.90
3816;DHT22;1923;48.154;11.536;2023-09-18T01:24:40;20.30;99.90
3816;DHT22;1923;48.154;11.536;2023-09-18T01:27:11;20.20;99.90
3816;DHT22;1923;48.154;11.536;2023-09-18T01:29:39;20.10;99.90
3816;DHT22;1923;48.154;11.536;2023-09-18T01:32:07;20.10;99.90
3816;DHT22;1923;48.154;11.536;2023-09-18T01:34:38;20.10;99.90
3816;DHT22;1923;48.154;11.536;2023-09-18T01:37:09;20.20;99.90
3816;DHT22;1923;48.154;11.536;2023-09-18T01:39:40;20.20;99.90
3816;DHT22;1923;48.154;11.536;2023-09-18T01:42:09;20.10;99.90
3816;DHT22;1923;48.154;11.536;2023-09-18T01:44:37;20.10;99.90
3816;DHT22;1923;48.154;11.536;2023-09-18T01:47:07;20.20;99.90
3816;DHT22;1923;48.154;11.536;2023-09-18T01:49:40;20.20;99.90
3816;DHT22;1923;48.154;11.536;2023-09-18T01:52:09;20.30;99.90
3816;DHT22;1923;48.154;11.536;2023-09-18T01:54:37;20.50;99.90
3816;DHT22;1923;48.154;11.536;2023-09-18T01:57:07;20.50;99.90
3816;DHT22;1923;48.154;11.536;2023-09-18T01:59:35;20.50;99.90
3816;DHT22;1923;48.154;11.536;2023-09-18T02:02:05;20.50;99.90
3816;DHT22;1923;48.154;11.536;2023-09-18T02:04:40;20.60;99.90
3816;DHT22;1923;48.154;11.536;2023-09-18T02:07:28;20.70;99.90
3816;DHT22;1923;48.154;11.536;2023-09-18T02:09:56;20.60;99.90
3816;DHT22;1923;48.154;11.536;2023-09-18T02:12:26;20.60;99.90
3816;DHT22;1923;48.154;11.536;2023-09-18T02:14:54;20.60;99.90
3816;DHT22;1923;48.154;11.536;2023-09-18T02:17:24;20.50;99.90
3816;DHT22;1923;48.154;11.536;2023-09-18T02:19:52;20.70;99.90
3816;DHT22;1923;48.154;11.536;2023-09-18T02:22:20;20.70;99.90
3816;DHT22;1923;48.154;11.536;2023-09-18T02:24:48;20.60;99.90
3816;DHT22;1923;48.154;11.536;2023-09-18T02:27:17;20.70;99.90
3816;DHT22;1923;48.154;11.536;2023-09-18T02:29:46;20.60;99.90
3816;DHT22;1923;48.154;11.536;2023-09-18T02:32:16;20.60;99.90
3816;DHT22;1923;48.154;11.536;2023-09-18T02:34:46;20.60;99.90
3816;DHT22;1923;48.154;11.536;2023-09-18T02:37:14;20.60;99.90
3816;DHT22;1923;48.154;11.536;2023-09-18T02:39:42;20.60;99.90
3816;DHT22;1923;48.154;11.536;2023-09-18T02:42:10;20.70;99.90
3816;DHT22;1923;48.154;11.536;2023-09-18T02:44:38;20.60;99.90
3816;DHT22;1923;48.154;11.536;2023-09-18T02:47:08;20.60;99.90
3816;DHT22;1923;48.154;11.536;2023-09-18T02:49:36;20.40;99.90
3816;DHT22;1923;48.154;11.536;2023-09-18T02:52:04;20.40;99.90
3816;DHT22;1923;48.154;11.536;2023-09-18T02:54:33;20.50;99.90
3816;DHT22;1923;48.154;11.536;2023-09-18T02:57:01;20.50;99.90
3816;DHT22;1923;48.154;11.536;2023-09-18T02:59:29;20.30;99.90
3816;DHT22;1923;48.154;11.536;2023-09-18T03:01:58;20.30;99.90
3816;DHT22;1923;48.154;11.536;2023-09-18T03:04:29;20.30;99.90
3816;DHT22;1923;48.154;11.536;2023-09-18T03:06:57;20.30;99.90
3816;DHT22;1923;48.154;11.536;2023-09-18T03:09:25;20.20;99.90
3816;DHT22;1923;48.154;11.536;2023-09-18T03:11:53;20.30;99.90
3816;DHT22;1923;48.154;11.536;2023-09-18T03:14:21;20.20;99.90
3816;DHT22;1923;48.154;11.536;2023-09-18T03:16:49;20.20;99.90
3816;DHT22;1923;48.154;11.536;2023-09-18T03:19:18;20.20;99.90
3816;DHT22;1923;48.154;11.536;2023-09-18T03:21:47;20.20;99.90
3816;DHT22;1923;48.154;11.536;2023-09-18T03:24:15;20.20;99.90
3816;DHT22;1923;48.154;11.536;2023-09-18T03:26:43;20.20;99.90
3816;DHT22;1923;48.154;11.536;2023-09-18T03:29:11;20.10;99.90
3816;DHT22;1923;48.154;11.536;2023-09-18T03:31:39;20.10;99.90
3816;DHT22;1923;48.154;11.536;2023-09-18T03:34:07;20.10;99.90
3816;DHT22;1923;48.154;11.536;2023-09-18T03:36:35;20.10;99.90
3816;DHT22;1923;48.154;11.536;2023-09-18T03:39:05;20.10;99.90
3816;DHT22;1923;48.154;11.536;2023-09-18T03:41:33;20.10;99.90
3816;DHT22;1923;48.154;11.536;2023-09-18T03:44:02;20.00;99.90
3816;DHT22;1923;48.154;11.536;2023-09-18T03:46:30;20.10;99.90
3816;DHT22;1923;48.154;11.536;2023-09-18T03:48:58;20.00;99.90
3816;DHT22;1923;48.154;11.536;2023-09-18T03:51:27;20.00;99.90
3816;DHT22;1923;48.154;11.536;2023-09-18T03:53:56;20.00;99.90
3816;DHT22;1923;48.154;11.536;2023-09-18T03:56:25;20.00;99.90
3816;DHT22;1923;48.154;11.536;2023-09-18T03:58:53;20.00;99.90
3816;DHT22;1923;48.154;11.536;2023-09-18T04:01:22;20.00;99.90
3816;DHT22;1923;48.154;11.536;2023-09-18T04:03:50;20.10;99.90
3816;DHT22;1923;48.154;11.536;2023-09-18T04:06:20;19.90;99.90
3816;DHT22;1923;48.154;11.536;2023-09-18T04:08:50;19.80;99.90
3816;DHT22;1923;48.154;11.536;2023-09-18T04:11:19;19.80;99.90
3816;DHT22;1923;48.154;11.536;2023-09-18T04:13:54;19.80;99.90
3816;DHT22;1923;48.154;11.536;2023-09-18T04:16:22;19.90;99.90
3816;DHT22;1923;48.154;11.536;2023-09-18T04:18:50;19.80;99.90
3816;DHT22;1923;48.154;11.536;2023-09-18T04:21:19;19.80;99.90
3816;DHT22;1923;48.154;11.536;2023-09-18T04:23:48;19.90;99.90
3816;DHT22;1923;48.154;11.536;2023-09-18T04:26:22;19.80;99.90
3816;DHT22;1923;48.154;11.536;2023-09-18T04:28:50;19.90;99.90
3816;DHT22;1923;48.154;11.536;2023-09-18T04:31:20;19.90;99.90
3816;DHT22;1923;48.154;11.536;2023-09-18T04:33:48;19.70;99.90
3816;DHT22;1923;48.154;11.536;2023-09-18T04:36:16;19.70;99.90
3816;DHT22;1923;48.154;11.536;2023-09-18T04:38:44;19.70;99.90
3816;DHT22;1923;48.154;11.536;2023-09-18T04:41:14;19.70;99.90
3816;DHT22;1923;48.154;11.536;2023-09-18T04:43:42;19.70;99.90
3816;DHT22;1923;48.154;11.536;2023-09-18T04:46:11;19.70;99.90
3816;DHT22;1923;48.154;11.536;2023-09-18T04:48:40;19.70;99.90
3816;DHT22;1923;48.154;11.536;2023-09-18T04:51:09;19.70;99.90
3816;DHT22;1923;48.154;11.536;2023-09-18T04:53:38;19.70;99.90
3816;DHT22;1923;48.154;11.536;2023-09-18T04:56:07;19.60;99.90
3816;DHT22;1923;48.154;11.536;2023-09-18T04:58:37;19.70;99.90
3816;DHT22;1923;48.154;11.536;2023-09-18T05:01:05;19.80;99.90
3816;DHT22;1923;48.154;11.536;2023-09-18T05:03:34;19.80;99.90
3816;DHT22;1923;48.154;11.536;2023-09-18T05:06:08;19.80;99.90
3816;DHT22;1923;48.154;11.536;2023-09-18T05:08:36;19.80;99.90
3816;DHT22;1923;48.154;11.536;2023-09-18T05:11:04;19.70;99.90
3816;DHT22;1923;48.154;11.536;2023-09-18T05:13:32;19.70;99.90
3816;DHT22;1923;48.154;11.536;2023-09-18T05:16:00;19.70;99.90
3816;DHT22;1923;48.154;11.536;2023-09-18T05:18:30;19.70;99.90
3816;DHT22;1923;48.154;11.536;2023-09-18T05:20:59;19.70;99.90
3816;DHT22;1923;48.154;11.536;2023-09-18T05:23:29;19.80;99.90
3816;DHT22;1923;48.154;11.536;2023-09-18T05:25:57;19.90;99.90
3816;DHT22;1923;48.154;11.536;2023-09-18T05:28:26;19.80;99.90
3816;DHT22;1923;48.154;11.536;2023-09-18T05:30:55;19.80;99.90
3816;DHT22;1923;48.154;11.536;2023-09-18T05:33:23;19.80;99.90
3816;DHT22;1923;48.154;11.536;2023-09-18T05:35:51;19.80;99.90
3816;DHT22;1923;48.154;11.536;2023-09-18T05:38:20;19.90;99.90
3816;DHT22;1923;48.154;11.536;2023-09-18T05:40:50;19.90;99.90
3816;DHT22;1923;48.154;11.536;2023-09-18T05:43:18;20.00;99.90
3816;DHT22;1923;48.154;11.536;2023-09-18T05:45:46;20.00;99.90
3816;DHT22;1923;48.154;11.536;2023-09-18T05:48:16;20.10;99.90
3816;DHT22;1923;48.154;11.536;2023-09-18T05:50:44;20.20;99.90
3816;DHT22;1923;48.154;11.536;2023-09-18T05:53:13;20.20;99.90
3816;DHT22;1923;48.154;11.536;2023-09-18T05:55:41;20.30;99.90
3816;DHT22;1923;48.154;11.536;2023-09-18T05:58:13;20.40;99.90
3816;DHT22;1923;48.154;11.536;2023-09-18T06:00:41;20.30;99.90
3816;DHT22;1923;48.154;11.536;2023-09-18T06:03:09;20.50;99.90
3816;DHT22;1923;48.154;11.536;2023-09-18T06:05:39;20.60;99.90
3816;DHT22;1923;48.154;11.536;2023-09-18T06:08:11;20.80;99.90
3816;DHT22;1923;48.154;11.536;2023-09-18T06:10:39;20.80;99.90
3816;DHT22;1923;48.154;11.536;2023-09-18T06:13:07;20.90;99.90
3816;DHT22;1923;48.154;11.536;2023-09-18T06:15:36;21.00;99.90
3816;DHT22;1923;48.154;11.536;2023-09-18T06:18:04;21.00;99.90
3816;DHT22;1923;48.154;11.536;2023-09-18T06:20:33;21.00;99.90
3816;DHT22;1923;48.154;11.536;2023-09-18T06:23:01;21.10;99.90
3816;DHT22;1923;48.154;11.536;2023-09-18T06:25:30;21.20;99.90
3816;DHT22;1923;48.154;11.536;2023-09-18T06:27:59;21.30;99.90
3816;DHT22;1923;48.154;11.536;2023-09-18T06:30:27;21.40;99.90
3816;DHT22;1923;48.154;11.536;2023-09-18T06:32:59;21.50;99.90
3816;DHT22;1923;48.154;11.536;2023-09-18T06:35:28;21.60;99.90
3816;DHT22;1923;48.154;11.536;2023-09-18T06:37:56;21.50;99.90
3816;DHT22;1923;48.154;11.536;2023-09-18T06:40:25;21.60;99.90
3816;DHT22;1923;48.154;11.536;2023-09-18T06:42:58;21.60;99.90
3816;DHT22;1923;48.154;11.536;2023-09-18T06:45:27;21.60;99.90
3816;DHT22;1923;48.154;11.536;2023-09-18T06:47:55;21.70;99.90
3816;DHT22;1923;48.154;11.536;2023-09-18T06:50:24;21.80;99.90
3816;DHT22;1923;48.154;11.536;2023-09-18T06:52:52;21.90;99.90
3816;DHT22;1923;48.154;11.536;2023-09-18T06:55:20;21.90;99.90
3816;DHT22;1923;48.154;11.536;2023-09-18T06:57:49;22.00;99.90
3816;DHT22;1923;48.154;11.536;2023-09-18T07:00:19;22.10;99.90
3816;DHT22;1923;48.154;11.536;2023-09-18T07:02:48;22.00;99.90
3816;DHT22;1923;48.154;11.536;2023-09-18T07:05:17;22.00;99.90
3816;DHT22;1923;48.154;11.536;2023-09-18T07:07:47;22.00;99.90
3816;DHT22;1923;48.154;11.536;2023-09-18T07:10:15;21.90;99.90
3816;DHT22;1923;48.154;11.536;2023-09-18T07:12:43;21.90;99.90
3816;DHT22;1923;48.154;11.536;2023-09-18T07:15:11;22.00;99.90
3816;DHT22;1923;48.154;11.536;2023-09-18T07:17:39;22.10;99.90
3816;DHT22;1923;48.154;11.536;2023-09-18T07:20:08;22.30;99.90
3816;DHT22;1923;48.154;11.536;2023-09-18T07:22:47;22.40;99.90
3816;DHT22;1923;48.154;11.536;2023-09-18T07:25:17;22.50;99.90
3816;DHT22;1923;48.154;11.536;2023-09-18T07:27:45;22.80;99.90
3816;DHT22;1923;48.154;11.536;2023-09-18T07:30:14;23.10;99.90
3816;DHT22;1923;48.154;11.536;2023-09-18T07:32:44;23.30;99.90
3816;DHT22;1923;48.154;11.536;2023-09-18T07:35:13;23.40;99.90
3816;DHT22;1923;48.154;11.536;2023-09-18T07:37:42;23.50;99.90
3816;DHT22;1923;48.154;11.536;2023-09-18T07:40:13;23.60;99.90
3816;DHT22;1923;48.154;11.536;2023-09-18T07:42:42;23.50;99.90
3816;DHT22;1923;48.154;11.536;2023-09-18T07:45:11;23.50;99.90
3816;DHT22;1923;48.154;11.536;2023-09-18T07:47:39;23.40;99.90
3816;DHT22;1923;48.154;11.536;2023-09-18T07:50:08;23.30;99.90
3816;DHT22;1923;48.154;11.536;2023-09-18T07:52:36;23.40;99.90
3816;DHT22;1923;48.154;11.536;2023-09-18T07:55:05;23.50;99.90
3816;DHT22;1923;48.154;11.536;2023-09-18T07:57:35;23.50;99.90
3816;DHT22;1923;48.154;11.536;2023-09-18T08:00:05;23.60;99.90
3816;DHT22;1923;48.154;11.536;2023-09-18T08:02:39;23.90;99.90
3816;DHT22;1923;48.154;11.536;2023-09-18T08:05:08;24.00;99.90
3816;DHT22;1923;48.154;11.536;2023-09-18T08:07:36;24.10;99.90
3816;DHT22;1923;48.154;11.536;2023-09-18T08:10:08;24.30;99.90
3816;DHT22;1923;48.154;11.536;2023-09-18T08:12:38;24.50;99.90
3816;DHT22;1923;48.154;11.536;2023-09-18T08:15:07;24.60;99.90
3816;DHT22;1923;48.154;11.536;2023-09-18T08:17:36;24.80;99.90
3816;DHT22;1923;48.154;11.536;2023-09-18T08:20:06;24.90;99.90
3816;DHT22;1923;48.154;11.536;2023-09-18T08:22:43;24.90;99.90
3816;DHT22;1923;48.154;11.536;2023-09-18T08:25:11;25.00;99.90
3816;DHT22;1923;48.154;11.536;2023-09-18T08:27:41;25.00;99.90
3816;DHT22;1923;48.154;11.536;2023-09-18T08:30:12;25.00;99.90
3816;DHT22;1923;48.154;11.536;2023-09-18T08:32:42;25.00;99.90
3816;DHT22;1923;48.154;11.536;2023-09-18T08:35:10;25.10;99.90
3816;DHT22;1923;48.154;11.536;2023-09-18T08:37:40;25.10;99.90
3816;DHT22;1923;48.154;11.536;2023-09-18T08:40:10;25.00;99.90
3816;DHT22;1923;48.154;11.536;2023-09-18T08:42:45;24.90;99.90
3816;DHT22;1923;48.154;11.536;2023-09-18T08:45:25;24.80;99.90
3816;DHT22;1923;48.154;11.536;2023-09-18T08:47:56;24.70;99.90
3816;DHT22;1923;48.154;11.536;2023-09-18T08:50:25;24.80;99.90
3816;DHT22;1923;48.154;11.536;2023-09-18T08:52:53;24.80;99.90
3816;DHT22;1923;48.154;11.536;2023-09-18T08:55:23;24.80;99.90
3816;DHT22;1923;48.154;11.536;2023-09-18T08:57:53;24.60;99.90
3816;DHT22;1923;48.154;11.536;2023-09-18T09:00:23;24.60;99.90
3816;DHT22;1923;48.154;11.536;2023-09-18T09:02:51;24.50;99.90
3816;DHT22;1923;48.154;11.536;2023-09-18T09:05:21;24.60;99.90
3816;DHT22;1923;48.154;11.536;2023-09-18T09:07:50;24.60;99.90
3816;DHT22;1923;48.154;11.536;2023-09-18T09:10:18;24.60;99.90
3816;DHT22;1923;48.154;11.536;2023-09-18T09:12:48;24.70;99.90
3816;DHT22;1923;48.154;11.536;2023-09-18T09:15:17;24.70;99.90
3816;DHT22;1923;48.154;11.536;2023-09-18T09:17:47;24.70;99.90
3816;DHT22;1923;48.154;11.536;2023-09-18T09:20:16;24.70;99.90
3816;DHT22;1923;48.154;11.536;2023-09-18T09:22:46;24.60;99.90
3816;DHT22;1923;48.154;11.536;2023-09-18T09:25:25;24.50;99.90
3816;DHT22;1923;48.154;11.536;2023-09-18T09:27:58;24.30;99.90
3816;DHT22;1923;48.154;11.536;2023-09-18T09:30:28;24.30;99.90
3816;DHT22;1923;48.154;11.536;2023-09-18T09:32:58;24.20;99.90
3816;DHT22;1923;48.154;11.536;2023-09-18T09:35:27;24.20;99.90
3816;DHT22;1923;48.154;11.536;2023-09-18T09:38:00;24.40;99.90
3816;DHT22;1923;48.154;11.536;2023-09-18T09:40:29;24.50;99.90
3816;DHT22;1923;48.154;11.536;2023-09-18T09:42:58;24.50;99.90
3816;DHT22;1923;48.154;11.536;2023-09-18T09:45:31;24.70;99.90
3816;DHT22;1923;48.154;11.536;2023-09-18T09:48:03;24.90;99.90
3816;DHT22;1923;48.154;11.536;2023-09-18T09:50:33;25.10;99.90
3816;DHT22;1923;48.154;11.536;2023-09-18T09:53:03;25.20;99.90
3816;DHT22;1923;48.154;11.536;2023-09-18T09:55:33;25.40;99.90
3816;DHT22;1923;48.154;11.536;2023-09-18T09:58:02;25.50;99.90
3816;DHT22;1923;48.154;11.536;2023-09-18T10:00:33;25.50;99.90
3816;DHT22;1923;48.154;11.536;2023-09-18T10:03:08;25.50;99.90
3816;DHT22;1923;48.154;11.536;2023-09-18T10:05:39;25.40;99.90
3816;DHT22;1923;48.154;11.536;2023-09-18T10:08:09;25.30;99.90
3816;DHT22;1923;48.154;11.536;2023-09-18T10:10:39;25.30;99.90
3816;DHT22;1923;48.154;11.536;2023-09-18T10:13:10;25.50;99.90
3816;DHT22;1923;48.154;11.536;2023-09-18T10:15:42;25.50;99.90
3816;DHT22;1923;48.154;11.536;2023-09-18T10:18:27;25.50;99.90
3816;DHT22;1923;48.154;11.536;2023-09-18T10:21:01;25.60;99.90
3816;DHT22;1923;48.154;11.536;2023-09-18T10:23:40;25.60;99.90
3816;DHT22;1923;48.154;11.536;2023-09-18T10:26:39;25.40;99.90
3816;DHT22;1923;48.154;11.536;2023-09-18T10:29:11;25.50;99.90
3816;DHT22;1923;48.154;11.536;2023-09-18T10:31:43;25.40;99.90
3816;DHT22;1923;48.154;11.536;2023-09-18T10:34:13;25.60;99.90
3816;DHT22;1923;48.154;11.536;2023-09-18T10:36:41;25.50;99.90
3816;DHT22;1923;48.154;11.536;2023-09-18T10:39:10;25.70;99.90
3816;DHT22;1923;48.154;11.536;2023-09-18T10:41:40;25.50;99.90
3816;DHT22;1923;48.154;11.536;2023-09-18T10:44:10;25.70;99.90
3816;DHT22;1923;48.154;11.536;2023-09-18T10:46:41;25.70;99.90
3816;DHT22;1923;48.154;11.536;2023-09-18T10:49:09;25.60;99.90
3816;DHT22;1923;48.154;11.536;2023-09-18T10:51:38;25.50;99.90
3816;DHT22;1923;48.154;11.536;2023-09-18T10:54:11;25.60;99.90
3816;DHT22;1923;48.154;11.536;2023-09-18T10:56:42;25.70;99.90
3816;DHT22;1923;48.154;11.536;2023-09-18T10:59:10;25.80;99.90
3816;DHT22;1923;48.154;11.536;2023-09-18T11:01:39;25.80;99.90
3816;DHT22;1923;48.154;11.536;2023-09-18T11:04:09;25.80;99.90
3816;DHT22;1923;48.154;11.536;2023-09-18T11:07:05;25.80;99.90
3816;DHT22;1923;48.154;11.536;2023-09-18T11:09:41;25.70;99.90
3816;DHT22;1923;48.154;11.536;2023-09-18T11:12:10;25.80;99.90
3816;DHT22;1923;48.154;11.536;2023-09-18T11:14:43;25.80;99.90
3816;DHT22;1923;48.154;11.536;2023-09-18T11:17:30;25.80;99.90
3816;DHT22;1923;48.154;11.536;2023-09-18T11:20:08;25.70;99.90
3816;DHT22;1923;48.154;11.536;2023-09-18T11:22:39;25.80;99.90
3816;DHT22;1923;48.154;11.536;2023-09-18T11:28:16;25.90;99.90
3816;DHT22;1923;48.154;11.536;2023-09-18T11:30:50;25.90;99.90
3816;DHT22;1923;48.154;11.536;2023-09-18T11:33:30;25.80;99.90
3816;DHT22;1923;48.154;11.536;2023-09-18T11:36:03;25.60;99.90
3816;DHT22;1923;48.154;11.536;2023-09-18T11:38:34;25.50;99.90
3816;DHT22;1923;48.154;11.536;2023-09-18T11:41:23;25.40;99.90
3816;DHT22;1923;48.154;11.536;2023-09-18T11:43:52;25.40;99.90
3816;DHT22;1923;48.154;11.536;2023-09-18T11:46:21;25.30;99.90
3816;DHT22;1923;48.154;11.536;2023-09-18T11:48:49;25.20;99.90
3816;DHT22;1923;48.154;11.536;2023-09-18T11:51:23;25.10;99.90
3816;DHT22;1923;48.154;11.536;2023-09-18T11:53:54;24.90;99.90
3816;DHT22;1923;48.154;11.536;2023-09-18T11:56:22;24.90;99.90
3816;DHT22;1923;48.154;11.536;2023-09-18T11:58:51;24.80;99.90
3816;DHT22;1923;48.154;11.536;2023-09-18T12:01:21;24.60;99.90
3816;DHT22;1923;48.154;11.536;2023-09-18T12:03:54;24.30;99.90
3816;DHT22;1923;48.154;11.536;2023-09-18T12:06:24;24.00;99.90
3816;DHT22;1923;48.154;11.536;2023-09-18T12:08:52;23.90;99.90
3816;DHT22;1923;48.154;11.536;2023-09-18T12:11:21;23.80;99.90
3816;DHT22;1923;48.154;11.536;2023-09-18T12:13:51;23.70;99.90
3816;DHT22;1923;48.154;11.536;2023-09-18T12:16:19;23.70;99.90
3816;DHT22;1923;48.154;11.536;2023-09-18T12:18:48;23.60;99.90
3816;DHT22;1923;48.154;11.536;2023-09-18T12:21:16;23.50;99.90
3816;DHT22;1923;48.154;11.536;2023-09-18T12:23:46;23.30;99.90
3816;DHT22;1923;48.154;11.536;2023-09-18T12:26:16;23.10;99.90
3816;DHT22;1923;48.154;11.536;2023-09-18T12:28:48;22.90;99.90
3816;DHT22;1923;48.154;11.536;2023-09-18T12:31:17;22.60;99.90
3816;DHT22;1923;48.154;11.536;2023-09-18T12:33:46;22.50;99.90
3816;DHT22;1923;48.154;11.536;2023-09-18T12:36:19;22.30;99.90
3816;DHT22;1923;48.154;11.536;2023-09-18T12:38:56;22.30;99.90
3816;DHT22;1923;48.154;11.536;2023-09-18T12:41:26;22.20;99.90
3816;DHT22;1923;48.154;11.536;2023-09-18T12:43:57;22.10;99.90
3816;DHT22;1923;48.154;11.536;2023-09-18T12:46:25;22.00;99.90
3816;DHT22;1923;48.154;11.536;2023-09-18T12:48:54;22.00;99.90
3816;DHT22;1923;48.154;11.536;2023-09-18T12:51:29;21.80;99.90
3816;DHT22;1923;48.154;11.536;2023-09-18T12:54:03;21.70;99.90
3816;DHT22;1923;48.154;11.536;2023-09-18T12:56:40;21.70;99.90
3816;DHT22;1923;48.154;11.536;2023-09-18T12:59:08;21.60;99.90
3816;DHT22;1923;48.154;11.536;2023-09-18T13:01:46;21.50;99.90
3816;DHT22;1923;48.154;11.536;2023-09-18T13:04:15;21.40;99.90
3816;DHT22;1923;48.154;11.536;2023-09-18T13:06:44;21.20;99.90
3816;DHT22;1923;48.154;11.536;2023-09-18T13:09:19;21.10;99.90
3816;DHT22;1923;48.154;11.536;2023-09-18T13:11:55;20.90;99.90
3816;DHT22;1923;48.154;11.536;2023-09-18T13:14:23;20.90;99.90
3816;DHT22;1923;48.154;11.536;2023-09-18T13:16:51;20.70;99.90
3816;DHT22;1923;48.154;11.536;2023-09-18T13:19:20;20.60;99.90
3816;DHT22;1923;48.154;11.536;2023-09-18T13:21:48;20.40;99.90
3816;DHT22;1923;48.154;11.536;2023-09-18T13:24:30;20.20;99.90
3816;DHT22;1923;48.154;11.536;2023-09-18T13:26:58;20.30;99.90
3816;DHT22;1923;48.154;11.536;2023-09-18T13:29:27;20.20;99.90
3816;DHT22;1923;48.154;11.536;2023-09-18T13:31:56;20.10;99.90
3816;DHT22;1923;48.154;11.536;2023-09-18T13:34:27;20.20;99.90
3816;DHT22;1923;48.154;11.536;2023-09-18T13:36:57;20.20;99.90
3816;DHT22;1923;48.154;11.536;2023-09-18T13:39:25;20.10;99.90
3816;DHT22;1923;48.154;11.536;2023-09-18T13:41:54;20.10;99.90
3816;DHT22;1923;48.154;11.536;2023-09-18T13:44:23;20.00;99.90
3816;DHT22;1923;48.154;11.536;2023-09-18T13:46:51;20.00;99.90
3816;DHT22;1923;48.154;11.536;2023-09-18T13:49:19;20.20;99.90
3816;DHT22;1923;48.154;11.536;2023-09-18T13:51:48;20.20;99.90
3816;DHT22;1923;48.154;11.536;2023-09-18T13:54:17;20.30;99.90
3816;DHT22;1923;48.154;11.536;2023-09-18T13:56:45;20.30;99.90
3816;DHT22;1923;48.154;11.536;2023-09-18T13:59:16;20.60;99.90
3816;DHT22;1923;48.154;11.536;2023-09-18T14:01:44;20.60;99.90
3816;DHT22;1923;48.154;11.536;2023-09-18T14:04:12;20.70;99.90
3816;DHT22;1923;48.154;11.536;2023-09-18T14:06:40;20.80;99.90
3816;DHT22;1923;48.154;11.536;2023-09-18T14:09:09;20.80;99.90
3816;DHT22;1923;48.154;11.536;2023-09-18T14:11:37;20.90;99.90
3816;DHT22;1923;48.154;11.536;2023-09-18T14:14:05;20.90;99.90
3816;DHT22;1923;48.154;11.536;2023-09-18T14:16:35;21.00;99.90
3816;DHT22;1923;48.154;11.536;2023-09-18T14:19:04;21.00;99.90
3816;DHT22;1923;48.154;11.536;2023-09-18T14:21:32;21.10;99.90
3816;DHT22;1923;48.154;11.536;2023-09-18T14:24:00;21.10;99.90
3816;DHT22;1923;48.154;11.536;2023-09-18T14:26:28;21.10;99.90
3816;DHT22;1923;48.154;11.536;2023-09-18T14:28:57;21.20;99.90
3816;DHT22;1923;48.154;11.536;2023-09-18T14:31:25;21.10;99.90
3816;DHT22;1923;48.154;11.536;2023-09-18T14:33:55;21.10;99.90
3816;DHT22;1923;48.154;11.536;2023-09-18T14:36:24;21.00;99.90
3816;DHT22;1923;48.154;11.536;2023-09-18T14:38:52;21.00;99.90
3816;DHT22;1923;48.154;11.536;2023-09-18T14:41:22;21.00;99.90
3816;DHT22;1923;48.154;11.536;2023-09-18T14:43:51;21.20;99.90
3816;DHT22;1923;48.154;11.536;2023-09-18T14:46:20;21.00;99.90
3816;DHT22;1923;48.154;11.536;2023-09-18T14:48:49;21.10;99.90
3816;DHT22;1923;48.154;11.536;2023-09-18T14:51:19;20.90;99.90
3816;DHT22;1923;48.154;11.536;2023-09-18T14:53:47;20.80;99.90
3816;DHT22;1923;48.154;11.536;2023-09-18T14:56:15;20.90;99.90
3816;DHT22;1923;48.154;11.536;2023-09-18T14:58:43;20.90;99.90
3816;DHT22;1923;48.154;11.536;2023-09-18T15:01:11;20.90;99.90
3816;DHT22;1923;48.154;11.536;2023-09-18T15:03:41;20.80;99.90
3816;DHT22;1923;48.154;11.536;2023-09-18T15:06:11;20.80;99.90
3816;DHT22;1923;48.154;11.536;2023-09-18T15:08:43;20.80;99.90
3816;DHT22;1923;48.154;11.536;2023-09-18T15:11:11;20.90;99.90
3816;DHT22;1923;48.154;11.536;2023-09-18T15:13:39;20.80;99.90
3816;DHT22;1923;48.154;11.536;2023-09-18T15:16:07;20.80;99.90
3816;DHT22;1923;48.154;11.536;2023-09-18T15:18:37;20.80;99.90
3816;DHT22;1923;48.154;11.536;2023-09-18T15:21:06;20.90;99.90
3816;DHT22;1923;48.154;11.536;2023-09-18T15:23:34;20.70;99.90
3816;DHT22;1923;48.154;11.536;2023-09-18T15:26:04;20.70;99.90
3816;DHT22;1923;48.154;11.536;2023-09-18T15:28:33;20.50;99.90
3816;DHT22;1923;48.154;11.536;2023-09-18T15:31:01;20.50;99.90
3816;DHT22;1923;48.154;11.536;2023-09-18T15:33:30;20.40;99.90
3816;DHT22;1923;48.154;11.536;2023-09-18T15:35:58;20.40;99.90
3816;DHT22;1923;48.154;11.536;2023-09-18T15:38:26;20.30;99.90
3816;DHT22;1923;48.154;11.536;2023-09-18T15:40:56;20.30;99.90
3816;DHT22;1923;48.154;11.536;2023-09-18T15:43:26;20.30;99.90
3816;DHT22;1923;48.154;11.536;2023-09-18T15:45:54;20.20;99.90
3816;DHT22;1923;48.154;11.536;2023-09-18T15:48:24;20.10;99.90
3816;DHT22;1923;48.154;11.536;2023-09-18T15:50:54;20.20;99.90
3816;DHT22;1923;48.154;11.536;2023-09-18T15:53:22;20.20;99.90
3816;DHT22;1923;48.154;11.536;2023-09-18T15:55:50;20.30;99.90
3816;DHT22;1923;48.154;11.536;2023-09-18T15:58:18;20.20;99.90
3816;DHT22;1923;48.154;11.536;2023-09-18T16:00:51;20.30;99.90
3816;DHT22;1923;48.154;11.536;2023-09-18T16:03:21;20.40;99.90
3816;DHT22;1923;48.154;11.536;2023-09-18T16:05:49;20.50;99.90